Airfield :
LOGIN :

Register | Disclaimer

   EN    FR    IT 

 










Legend :    VFR   Marginal VFR   IFR   Intensive IFR   Very Intensive IFR
Visi :
Ceiling :
>= 8 km
>= 3000ft
5 to 8 km
1000 to 3000 ft
1500m to 5 km
500 to 1000 ft
800 to 1500m
200 to 500 ft
< 800m
< 200 ft
Symbols :   Thunderstorms  Fog  Heavy snow  Heavy precipitations  Wind > 20 kt
SIGMETs :     Misc.  Thunderstorms  Icing  Turbulence  Mountain Waves  Volcanic Ashes







- Airport Elevation : 74 ft
- IATA code : LRH
- Download approach charts


LFBH - La Rochelle Ile de Ré

CURRENT METAR :
  • 181530Z AUTO 35008KT 330V030 CAVOK 23/17 Q1017 NOSIG

EXPIRED METARs :
  • 181500Z AUTO 34009KT CAVOK 24/16 Q1017 NOSIG
  • 181430Z AUTO 32008KT 290V350 CAVOK 24/17 Q1017 NOSIG
  • 181400Z AUTO 29005KT 220V360 CAVOK 24/17 Q1017 NOSIG
  • 181330Z AUTO 27007KT 240V310 CAVOK 24/17 Q1017 NOSIG
  • 181300Z AUTO 26007KT 240V300 CAVOK 23/17 Q1017 NOSIG

TAF TAF LFBH
Valid from the 18 at 12:00 until the 19 at 12:00 UTC


181100Z 1812/1912 18005KT CAVOK
BECMG 1812/1814 30010KT
BECMG 1822/1824 BKN013
BECMG 1901/1903 0500 FG VV///
BECMG 1905/1907 9999 NSW BKN016
ATIS : +33 5 46 00 13 92
No reported NOTAMs for that airfield.



MET'MAP, your aeronautical weather chart ! - Copyright ORBIFLY December 2007 - Disclaimer

ORBIFLY MET'MAP TEAM :

Programming & Development : Alexandra Zaïnal
Concept & Development : Baudouin d'Aumeries
Co-Development & Prog : Marc-Olivier Méhu
Technical & hardware support : Manuel Goepfert

Contact : metmap@orbifly.com




SOURCES & CREDITS :

   NOAA